createdAt,value
2022-11-30T00:01:21.594Z,76.82
2022-11-30T00:03:49.776Z,76.85
2022-11-30T00:06:23.312Z,76.79
2022-11-30T00:08:51.238Z,76.78
2022-11-30T00:11:21.007Z,76.89
2022-11-30T00:13:48.650Z,76.94
2022-11-30T00:16:16.457Z,76.98
2022-11-30T00:18:43.786Z,77.05
2022-11-30T00:21:14.472Z,77.07
2022-11-30T00:23:43.672Z,77.18
2022-11-30T00:26:12.536Z,77.17
2022-11-30T00:28:41.292Z,77.15
2022-11-30T00:31:10.307Z,77.03
2022-11-30T00:33:39.135Z,77.12
2022-11-30T00:36:09.460Z,77.25
2022-11-30T00:38:36.351Z,77.29
2022-11-30T00:41:03.872Z,77.41
2022-11-30T00:43:31.828Z,77.47
2022-11-30T00:45:59.638Z,77.53
2022-11-30T00:48:27.348Z,77.42
2022-11-30T00:50:55.122Z,77.50
2022-11-30T00:53:23.204Z,77.47
2022-11-30T00:55:50.876Z,77.55
2022-11-30T00:58:18.003Z,77.40
2022-11-30T01:00:45.510Z,77.23
2022-11-30T01:03:12.996Z,77.21
2022-11-30T01:05:40.786Z,77.23
2022-11-30T01:08:10.222Z,77.27
2022-11-30T01:10:38.799Z,77.23
2022-11-30T01:13:06.432Z,77.26
2022-11-30T01:15:36.930Z,77.18
2022-11-30T01:18:04.030Z,77.17
2022-11-30T01:20:31.360Z,77.25
2022-11-30T01:22:59.089Z,77.18
2022-11-30T01:25:26.482Z,77.29
2022-11-30T01:27:54.449Z,77.16
2022-11-30T01:30:21.759Z,77.12
2022-11-30T01:32:49.055Z,77.24
2022-11-30T01:35:16.486Z,77.25
2022-11-30T01:37:43.563Z,77.12
2022-11-30T01:40:13.357Z,77.19
2022-11-30T01:42:46.256Z,77.09
2022-11-30T01:45:15.779Z,77.08
2022-11-30T01:47:47.801Z,77.21
2022-11-30T01:50:22.254Z,77.22
2022-11-30T01:52:53.486Z,77.37
2022-11-30T01:55:24.031Z,77.10
2022-11-30T01:57:57.834Z,77.13
2022-11-30T02:00:25.796Z,77.08
2022-11-30T02:03:01.152Z,77.09
2022-11-30T02:05:29.529Z,77.18
2022-11-30T02:07:57.808Z,77.02
2022-11-30T02:10:30.905Z,76.81
2022-11-30T02:13:23.129Z,76.83
2022-11-30T02:16:02.734Z,76.96
2022-11-30T02:18:37.197Z,77.03
2022-11-30T02:21:12.433Z,77.17
2022-11-30T02:24:15.120Z,76.95
2022-11-30T02:26:59.984Z,77.19
2022-11-30T02:29:29.715Z,77.19
2022-11-30T02:32:05.552Z,77.20
2022-11-30T02:34:36.588Z,77.21
2022-11-30T02:37:04.662Z,77.12
2022-11-30T02:39:32.014Z,76.90
2022-11-30T02:41:59.268Z,76.83
2022-11-30T02:44:27.852Z,76.82
2022-11-30T02:47:05.814Z,76.97
2022-11-30T02:49:39.545Z,77.05
2022-11-30T02:52:09.582Z,77.05
2022-11-30T02:54:37.608Z,77.13
2022-11-30T02:57:04.845Z,77.09
2022-11-30T02:59:32.689Z,77.09
2022-11-30T03:02:00.074Z,77.07
2022-11-30T03:04:27.274Z,77.08
2022-11-30T03:06:54.939Z,77.09
2022-11-30T03:09:22.393Z,77.24
2022-11-30T03:11:49.668Z,77.30
2022-11-30T03:14:17.136Z,77.27
2022-11-30T03:16:44.766Z,77.04
2022-11-30T03:19:12.815Z,77.14
2022-11-30T03:21:40.421Z,77.18
2022-11-30T03:24:09.868Z,77.38
2022-11-30T03:26:37.053Z,77.20
2022-11-30T03:29:04.533Z,76.96
2022-11-30T03:31:32.152Z,77.08
2022-11-30T03:33:59.255Z,77.06
2022-11-30T03:36:26.883Z,76.93
2022-11-30T03:38:54.139Z,76.99
2022-11-30T03:41:22.004Z,77.08
2022-11-30T03:43:50.035Z,76.96
2022-11-30T03:46:18.585Z,77.05
2022-11-30T03:48:46.132Z,77.10
2022-11-30T03:51:15.027Z,77.16
2022-11-30T03:53:42.736Z,77.15
2022-11-30T03:56:12.472Z,77.21
2022-11-30T03:58:40.041Z,77.27
2022-11-30T04:01:10.074Z,77.12
2022-11-30T04:03:38.297Z,76.99
2022-11-30T04:06:07.858Z,76.94
2022-11-30T04:08:35.464Z,76.96
2022-11-30T04:11:04.339Z,77.03
2022-11-30T04:13:33.143Z,76.73
2022-11-30T04:16:01.046Z,76.64
2022-11-30T04:18:30.044Z,76.56
2022-11-30T04:20:59.040Z,76.46
2022-11-30T04:23:28.031Z,76.67
2022-11-30T04:25:55.386Z,76.79
2022-11-30T04:28:22.706Z,76.84
2022-11-30T04:30:50.004Z,76.83
2022-11-30T04:33:18.372Z,76.90
2022-11-30T04:35:48.545Z,76.84
2022-11-30T04:38:16.051Z,76.77
2022-11-30T04:40:45.044Z,76.70
2022-11-30T04:43:13.836Z,76.56
2022-11-30T04:45:41.498Z,76.76
2022-11-30T04:48:10.182Z,76.73
2022-11-30T04:50:37.946Z,76.45
2022-11-30T04:53:05.098Z,76.64
2022-11-30T04:55:32.356Z,76.77
2022-11-30T04:58:00.076Z,76.74
2022-11-30T05:00:27.755Z,76.89
2022-11-30T05:02:56.583Z,76.84
2022-11-30T05:05:23.921Z,76.92
2022-11-30T05:07:56.465Z,76.81
2022-11-30T05:10:24.715Z,76.53
2022-11-30T05:12:52.748Z,76.44
2022-11-30T05:15:20.900Z,76.34
2022-11-30T05:17:48.170Z,76.20
2022-11-30T05:20:16.405Z,76.21
2022-11-30T05:22:43.803Z,76.47
2022-11-30T05:25:12.596Z,76.42
2022-11-30T05:27:39.723Z,76.16
2022-11-30T05:30:09.282Z,76.12
2022-11-30T05:32:36.522Z,76.26
2022-11-30T05:35:03.724Z,76.21
2022-11-30T05:37:31.475Z,76.21
2022-11-30T05:39:58.975Z,76.39
2022-11-30T05:42:26.123Z,76.18
2022-11-30T05:44:56.276Z,76.13
2022-11-30T05:47:23.701Z,75.97
2022-11-30T05:49:51.056Z,76.08
2022-11-30T05:52:18.514Z,75.66
2022-11-30T05:54:46.178Z,75.95
2022-11-30T05:57:13.635Z,76.13
2022-11-30T05:59:41.001Z,76.31
2022-11-30T06:02:08.390Z,76.30
2022-11-30T06:04:37.953Z,76.07
2022-11-30T06:07:05.259Z,75.91
2022-11-30T06:09:33.129Z,76.14
2022-11-30T06:12:00.469Z,76.05
2022-11-30T06:14:27.584Z,75.98
2022-11-30T06:16:55.050Z,76.08
2022-11-30T06:19:22.290Z,76.16
2022-11-30T06:21:49.538Z,76.30
2022-11-30T06:24:16.862Z,76.44
2022-11-30T06:26:44.193Z,76.43
2022-11-30T06:29:12.262Z,76.49
2022-11-30T06:31:39.865Z,76.13
2022-11-30T06:34:06.930Z,76.10
2022-11-30T06:36:36.460Z,76.14
2022-11-30T06:39:04.097Z,76.06
2022-11-30T06:41:31.350Z,76.31
2022-11-30T06:43:58.602Z,76.38
2022-11-30T06:46:27.083Z,76.40
2022-11-30T06:48:54.339Z,76.56
2022-11-30T06:51:22.148Z,76.50
2022-11-30T06:53:49.764Z,76.33
2022-11-30T06:56:17.327Z,76.21
2022-11-30T06:58:45.127Z,76.22
2022-11-30T07:01:15.212Z,76.30
2022-11-30T07:03:44.749Z,76.36
2022-11-30T07:06:14.707Z,76.20
2022-11-30T07:08:42.899Z,76.17
2022-11-30T07:11:12.145Z,76.22
2022-11-30T07:13:39.657Z,76.32
2022-11-30T07:16:08.599Z,76.48
2022-11-30T07:18:36.244Z,76.72
2022-11-30T07:21:04.213Z,76.73
2022-11-30T07:23:55.944Z,76.65
2022-11-30T07:26:25.387Z,76.63
2022-11-30T07:28:58.692Z,76.35
2022-11-30T07:31:28.278Z,76.32
2022-11-30T07:33:57.415Z,76.53
2022-11-30T07:36:27.423Z,76.47
2022-11-30T07:38:54.964Z,76.52
2022-11-30T07:41:22.553Z,76.38
2022-11-30T07:43:50.219Z,76.51
2022-11-30T07:46:18.287Z,76.46
2022-11-30T07:48:46.935Z,76.48
2022-11-30T07:51:17.526Z,76.57
2022-11-30T07:53:45.064Z,76.78
2022-11-30T07:56:15.596Z,76.75
2022-11-30T07:58:44.424Z,76.75
2022-11-30T08:01:14.380Z,76.68
2022-11-30T08:03:42.061Z,76.60
2022-11-30T08:06:12.716Z,76.54
2022-11-30T08:08:42.436Z,76.55
2022-11-30T08:11:35.806Z,76.77
2022-11-30T08:14:05.814Z,76.86
2022-11-30T08:16:37.165Z,76.78
2022-11-30T08:19:04.961Z,76.76
2022-11-30T08:21:33.314Z,76.72
2022-11-30T08:24:00.977Z,76.91
2022-11-30T08:26:33.578Z,77.00
2022-11-30T08:29:03.036Z,77.08
2022-11-30T08:31:36.320Z,77.23
2022-11-30T08:34:06.274Z,77.28
2022-11-30T08:36:35.145Z,77.36
2022-11-30T08:39:05.104Z,77.32
2022-11-30T08:41:33.055Z,77.36
2022-11-30T08:44:00.471Z,77.18
2022-11-30T08:46:50.193Z,77.02
2022-11-30T08:49:24.438Z,77.14
2022-11-30T08:54:42.757Z,77.21
2022-11-30T08:57:10.501Z,77.38
2022-11-30T08:59:37.952Z,77.42
2022-11-30T09:02:06.059Z,77.30
2022-11-30T09:04:33.480Z,77.48
2022-11-30T09:07:01.059Z,77.53
2022-11-30T09:09:28.854Z,77.55
2022-11-30T09:11:57.735Z,77.59
2022-11-30T09:14:24.942Z,77.60
2022-11-30T09:16:54.216Z,77.50
2022-11-30T09:19:21.655Z,77.48
2022-11-30T09:21:51.847Z,77.47
2022-11-30T09:24:19.797Z,77.64
2022-11-30T09:26:47.055Z,77.74
2022-11-30T09:29:14.607Z,77.89
2022-11-30T09:31:42.169Z,77.84
2022-11-30T09:34:12.386Z,77.98
2022-11-30T09:36:39.536Z,78.02
2022-11-30T09:39:08.023Z,78.01
2022-11-30T09:42:03.946Z,78.08
2022-11-30T09:44:40.246Z,78.02
2022-11-30T09:47:27.806Z,77.94
2022-11-30T09:50:03.913Z,77.96
2022-11-30T09:52:37.296Z,78.03
2022-11-30T09:55:09.628Z,77.93
2022-11-30T09:57:43.175Z,77.96
2022-11-30T10:00:17.735Z,78.07
2022-11-30T10:02:46.080Z,77.99
2022-11-30T10:05:21.786Z,77.65
2022-11-30T10:08:09.571Z,77.63
2022-11-30T10:10:43.450Z,77.72
2022-11-30T10:13:28.159Z,77.70
2022-11-30T10:16:04.436Z,77.78
2022-11-30T10:18:34.303Z,78.05
2022-11-30T10:21:14.527Z,77.99
2022-11-30T10:23:55.886Z,77.92
2022-11-30T10:26:33.039Z,78.03
2022-11-30T10:29:07.551Z,77.98
2022-11-30T10:31:37.840Z,78.07
2022-11-30T10:34:14.757Z,78.17
2022-11-30T10:36:46.218Z,78.27
2022-11-30T10:39:21.972Z,78.23
2022-11-30T10:41:53.876Z,78.26
2022-11-30T10:44:26.126Z,78.39
2022-11-30T10:47:00.684Z,78.34
2022-11-30T10:49:32.192Z,78.45
2022-11-30T10:52:03.415Z,78.50
2022-11-30T10:54:32.626Z,78.45
2022-11-30T10:57:02.736Z,78.62
2022-11-30T10:59:40.532Z,78.45
2022-11-30T11:02:37.055Z,78.46
2022-11-30T11:05:20.409Z,78.43
2022-11-30T11:08:02.726Z,78.37
2022-11-30T11:10:37.637Z,78.50
2022-11-30T11:13:06.482Z,78.40
2022-11-30T11:15:36.508Z,78.43
2022-11-30T11:18:25.665Z,78.48
2022-11-30T11:21:06.802Z,78.68
2022-11-30T11:23:36.639Z,78.75
2022-11-30T11:26:04.884Z,78.74
2022-11-30T11:28:33.258Z,78.97
2022-11-30T11:31:01.243Z,78.99
2022-11-30T11:33:30.218Z,79.01
2022-11-30T11:36:14.112Z,79.07
2022-11-30T11:38:44.908Z,79.14
2022-11-30T11:41:20.561Z,79.25
2022-11-30T11:44:03.031Z,79.23
2022-11-30T11:46:31.864Z,79.37
2022-11-30T11:49:02.714Z,79.49
2022-11-30T11:51:40.735Z,79.47
2022-11-30T11:54:21.323Z,79.43
2022-11-30T11:56:49.526Z,79.32
2022-11-30T11:59:23.434Z,79.29
2022-11-30T12:02:01.031Z,79.17
2022-11-30T12:04:47.042Z,79.18
2022-11-30T12:07:22.923Z,79.30
2022-11-30T12:10:16.505Z,79.38
2022-11-30T12:12:54.655Z,79.32
2022-11-30T12:15:30.219Z,79.47
2022-11-30T12:18:15.920Z,79.29
2022-11-30T12:20:55.188Z,79.41
2022-11-30T12:23:46.953Z,79.32
2022-11-30T12:26:23.727Z,79.47
2022-11-30T12:29:06.249Z,79.52
2022-11-30T12:31:46.107Z,79.74
2022-11-30T12:34:34.481Z,79.87
2022-11-30T12:37:13.536Z,79.95
2022-11-30T12:39:50.106Z,80.08
2022-11-30T12:42:28.066Z,80.08
2022-11-30T12:45:05.365Z,80.36
2022-11-30T12:47:38.412Z,80.31
2022-11-30T12:50:35.144Z,80.49
2022-11-30T12:53:17.672Z,80.33
2022-11-30T12:55:53.712Z,80.43
2022-11-30T12:58:30.302Z,80.49
2022-11-30T13:01:10.088Z,80.28
2022-11-30T13:03:56.494Z,80.37
2022-11-30T13:06:31.787Z,80.37
2022-11-30T13:09:05.080Z,80.36
2022-11-30T13:11:40.230Z,80.61
2022-11-30T13:14:13.109Z,80.49
2022-11-30T13:16:42.030Z,80.71
2022-11-30T13:19:27.073Z,80.61
2022-11-30T13:22:01.358Z,80.54
2022-11-30T13:24:36.520Z,80.71
2022-11-30T13:27:10.283Z,80.61
2022-11-30T13:30:08.299Z,80.33
2022-11-30T13:35:55.441Z,80.26
2022-11-30T13:38:39.744Z,80.22
2022-11-30T13:41:08.875Z,80.35
2022-11-30T13:43:42.081Z,80.27
2022-11-30T13:46:20.634Z,80.36
2022-11-30T13:48:51.406Z,80.47
2022-11-30T13:51:37.938Z,80.42
2022-11-30T13:54:44.389Z,80.43
2022-11-30T13:57:51.189Z,80.60
2022-11-30T14:00:49.372Z,80.62
2022-11-30T14:03:29.373Z,80.54
2022-11-30T14:05:57.945Z,80.46
2022-11-30T14:08:41.648Z,80.20
2022-11-30T14:11:42.786Z,80.17
2022-11-30T14:14:47.536Z,79.93
2022-11-30T14:17:28.389Z,79.64
2022-11-30T14:20:01.174Z,79.59
2022-11-30T14:22:30.423Z,79.58
2022-11-30T14:24:58.860Z,79.36
2022-11-30T14:27:30.204Z,79.26
2022-11-30T14:30:03.440Z,79.46
2022-11-30T14:32:39.251Z,79.38
2022-11-30T14:35:17.088Z,79.41
2022-11-30T14:37:47.746Z,79.63
2022-11-30T14:40:20.685Z,79.56
2022-11-30T14:42:53.157Z,79.45
2022-11-30T14:45:26.697Z,79.55
2022-11-30T14:48:05.373Z,79.40
2022-11-30T14:50:33.582Z,79.35
2022-11-30T14:53:08.698Z,79.32
2022-11-30T14:55:41.185Z,79.27
2022-11-30T14:58:19.216Z,79.30
2022-11-30T15:00:48.272Z,79.26
2022-11-30T15:03:25.953Z,79.29
2022-11-30T15:05:56.071Z,79.21
2022-11-30T15:08:24.012Z,79.27
2022-11-30T15:10:51.906Z,79.22
2022-11-30T15:13:21.814Z,79.34
2022-11-30T15:15:56.513Z,79.18
2022-11-30T15:18:25.373Z,79.03
2022-11-30T15:20:56.003Z,79.04
2022-11-30T15:23:23.471Z,78.76
2022-11-30T15:25:55.706Z,78.74
2022-11-30T15:28:26.328Z,78.84
2022-11-30T15:30:57.985Z,79.04
2022-11-30T15:33:29.687Z,78.91
2022-11-30T15:36:18.825Z,79.17
2022-11-30T15:38:51.540Z,79.05
2022-11-30T15:41:23.718Z,79.30
2022-11-30T15:43:55.062Z,79.27
2022-11-30T15:46:46.012Z,79.31
2022-11-30T15:49:25.189Z,79.28
2022-11-30T15:52:04.420Z,79.07
2022-11-30T15:54:48.841Z,78.90
2022-11-30T15:57:16.061Z,78.84
2022-11-30T15:59:43.632Z,79.06
2022-11-30T16:02:28.722Z,79.06
2022-11-30T16:05:26.997Z,78.96
2022-11-30T16:07:54.562Z,78.98
2022-11-30T16:10:24.819Z,78.87
2022-11-30T16:12:55.550Z,78.95
2022-11-30T16:15:26.228Z,79.09
2022-11-30T16:17:54.832Z,79.17
2022-11-30T16:20:22.655Z,79.24
2022-11-30T16:22:50.803Z,79.25
2022-11-30T16:25:20.372Z,79.30
2022-11-30T16:27:48.995Z,79.46
2022-11-30T16:30:20.240Z,79.40
2022-11-30T16:32:48.219Z,79.35
2022-11-30T16:35:24.589Z,79.23
2022-11-30T16:37:53.057Z,79.23
2022-11-30T16:40:21.300Z,79.22
2022-11-30T16:42:49.680Z,79.13
2022-11-30T16:45:20.275Z,79.28
2022-11-30T16:47:47.564Z,79.27
2022-11-30T16:50:16.918Z,79.27
2022-11-30T16:52:45.085Z,79.29
2022-11-30T16:55:18.535Z,79.39
2022-11-30T16:57:46.305Z,79.52
2022-11-30T17:00:18.975Z,79.44
2022-11-30T17:02:52.623Z,79.59
2022-11-30T17:05:20.493Z,79.40
2022-11-30T17:07:48.252Z,79.23
2022-11-30T17:10:17.271Z,79.02
2022-11-30T17:12:44.461Z,79.20
2022-11-30T17:15:18.121Z,79.21
2022-11-30T17:17:45.451Z,79.24
2022-11-30T17:20:14.883Z,79.16
2022-11-30T17:22:44.061Z,79.26
2022-11-30T17:25:20.001Z,79.50
2022-11-30T17:27:47.605Z,79.28
2022-11-30T17:30:18.301Z,79.35
2022-11-30T17:32:45.793Z,79.37
2022-11-30T17:35:14.048Z,79.37
2022-11-30T17:37:41.345Z,79.33
2022-11-30T17:40:13.183Z,79.08
2022-11-30T17:42:40.677Z,78.74
2022-11-30T17:45:09.937Z,78.47
2022-11-30T17:47:37.847Z,78.54
2022-11-30T17:50:06.839Z,78.61
2022-11-30T17:52:33.914Z,78.51
2022-11-30T17:55:01.003Z,78.32
2022-11-30T17:57:28.598Z,78.40
2022-11-30T17:59:55.747Z,78.45
2022-11-30T18:02:23.103Z,78.46
2022-11-30T18:04:52.743Z,78.55
2022-11-30T18:07:20.404Z,78.32
2022-11-30T18:09:48.035Z,78.31
2022-11-30T18:12:15.317Z,78.31
2022-11-30T18:14:42.470Z,78.29
2022-11-30T18:17:09.956Z,78.31
2022-11-30T18:19:37.455Z,78.00
2022-11-30T18:22:04.811Z,78.10
2022-11-30T18:24:32.180Z,78.26
2022-11-30T18:26:59.316Z,78.30
2022-11-30T18:29:26.580Z,78.21
2022-11-30T18:31:53.820Z,78.24
2022-11-30T18:34:21.070Z,78.32
2022-11-30T18:36:48.737Z,78.30
2022-11-30T18:39:16.296Z,78.37
2022-11-30T18:41:43.553Z,78.08
2022-11-30T18:44:12.059Z,77.69
2022-11-30T18:46:39.734Z,77.63
2022-11-30T18:49:07.354Z,77.75
2022-11-30T18:51:34.712Z,77.19
2022-11-30T18:54:04.726Z,76.86
2022-11-30T18:56:34.782Z,77.03
2022-11-30T18:59:03.803Z,76.98
2022-11-30T19:01:32.171Z,77.23
2022-11-30T19:04:03.148Z,77.12
2022-11-30T19:06:33.125Z,77.23
2022-11-30T19:09:03.170Z,77.15
2022-11-30T19:11:31.521Z,77.13
2022-11-30T19:14:00.897Z,77.09
2022-11-30T19:16:30.763Z,76.82
2022-11-30T19:19:00.943Z,76.49
2022-11-30T19:21:30.009Z,76.60
2022-11-30T19:23:58.981Z,76.58
2022-11-30T19:26:28.658Z,76.54
2022-11-30T19:28:58.164Z,76.59
2022-11-30T19:31:27.908Z,76.34
2022-11-30T19:33:57.811Z,76.50
2022-11-30T19:36:29.054Z,76.81
2022-11-30T19:38:59.698Z,76.72
2022-11-30T19:41:28.109Z,76.57
2022-11-30T19:44:03.682Z,76.51
2022-11-30T19:46:33.581Z,76.70
2022-11-30T19:49:05.870Z,76.56
2022-11-30T19:51:35.307Z,76.43
2022-11-30T19:54:03.978Z,76.53
2022-11-30T19:56:35.201Z,76.23
2022-11-30T19:59:05.472Z,76.24
2022-11-30T20:01:35.860Z,76.37
2022-11-30T20:04:04.853Z,76.32
2022-11-30T20:06:35.279Z,76.15
2022-11-30T20:09:03.881Z,76.18
2022-11-30T20:11:32.094Z,75.91
2022-11-30T20:14:00.507Z,76.40
2022-11-30T20:16:28.523Z,76.39
2022-11-30T20:18:58.187Z,76.13
2022-11-30T20:21:28.202Z,75.82
2022-11-30T20:23:58.427Z,75.91
2022-11-30T20:26:30.291Z,76.00
2022-11-30T20:28:58.465Z,75.97
2022-11-30T20:31:27.533Z,76.02
2022-11-30T20:33:54.983Z,75.95
2022-11-30T20:36:23.254Z,75.90
2022-11-30T20:38:52.561Z,76.00
2022-11-30T20:41:21.663Z,76.08
2022-11-30T20:43:50.360Z,76.02
2022-11-30T20:46:19.703Z,75.77
2022-11-30T20:48:47.499Z,75.72
2022-11-30T20:51:33.245Z,75.71
2022-11-30T20:54:02.450Z,76.05
2022-11-30T20:56:29.677Z,75.97
2022-11-30T20:58:57.376Z,76.05
2022-11-30T21:01:25.153Z,76.09
2022-11-30T21:03:52.404Z,76.06
2022-11-30T21:06:19.662Z,76.19
2022-11-30T21:08:47.170Z,76.17
2022-11-30T21:11:16.777Z,76.22
2022-11-30T21:13:45.468Z,76.15
2022-11-30T21:16:13.682Z,76.25
2022-11-30T21:18:42.750Z,76.04
2022-11-30T21:21:15.043Z,76.08
2022-11-30T21:23:42.671Z,76.13
2022-11-30T21:26:17.393Z,75.85
2022-11-30T21:28:44.815Z,75.82
2022-11-30T21:31:12.294Z,76.04
2022-11-30T21:33:39.398Z,76.04
2022-11-30T21:36:10.292Z,76.11
2022-11-30T21:38:37.646Z,76.28
2022-11-30T21:41:05.069Z,76.37
2022-11-30T21:43:35.404Z,76.45
2022-11-30T21:46:05.371Z,76.22
2022-11-30T21:48:34.306Z,76.31
2022-11-30T21:51:03.916Z,76.22
2022-11-30T21:53:32.601Z,76.06
2022-11-30T21:56:05.648Z,76.21
2022-11-30T21:58:34.478Z,76.15
2022-11-30T22:01:03.888Z,76.19
2022-11-30T22:03:31.745Z,76.20
2022-11-30T22:06:06.378Z,76.25
2022-11-30T22:08:34.557Z,76.35
2022-11-30T22:11:05.136Z,76.53
2022-11-30T22:13:33.236Z,76.56
2022-11-30T22:16:05.537Z,76.54
2022-11-30T22:18:32.961Z,76.47
2022-11-30T22:21:07.043Z,76.52
2022-11-30T22:23:35.349Z,76.48
2022-11-30T22:26:14.582Z,76.67
2022-11-30T22:28:43.471Z,76.62
2022-11-30T22:31:12.631Z,76.59
2022-11-30T22:33:41.618Z,76.70
2022-11-30T22:36:13.065Z,76.53
2022-11-30T22:38:40.138Z,76.54
2022-11-30T22:41:09.404Z,76.43
2022-11-30T22:43:37.250Z,76.33
2022-11-30T22:46:09.849Z,76.40
2022-11-30T22:48:37.500Z,76.78
2022-11-30T22:51:10.523Z,76.51
2022-11-30T22:53:38.225Z,76.55
2022-11-30T22:56:08.486Z,76.54
2022-11-30T22:58:36.105Z,76.41
2022-11-30T23:01:11.360Z,76.34
2022-11-30T23:03:38.822Z,76.31
2022-11-30T23:06:07.598Z,76.31
2022-11-30T23:08:35.684Z,76.40
2022-11-30T23:11:04.274Z,76.32
2022-11-30T23:13:32.421Z,76.33
2022-11-30T23:16:01.161Z,76.29
2022-11-30T23:18:28.961Z,76.35
2022-11-30T23:20:56.362Z,76.39
2022-11-30T23:23:23.856Z,76.41
2022-11-30T23:25:51.478Z,76.55
2022-11-30T23:28:18.775Z,76.51
2022-11-30T23:30:46.032Z,76.64
2022-11-30T23:33:13.236Z,76.76
2022-11-30T23:35:45.198Z,76.75
2022-11-30T23:38:12.549Z,76.76
2022-11-30T23:40:39.780Z,76.70
2022-11-30T23:43:07.262Z,76.71
2022-11-30T23:45:34.834Z,76.78
2022-11-30T23:48:02.173Z,76.72
2022-11-30T23:50:29.503Z,76.92
2022-11-30T23:52:57.240Z,77.04
2022-11-30T23:55:24.518Z,76.89
2022-11-30T23:57:51.595Z,76.98
